createdAt,value
2023-04-18T00:01:49.061Z,8.80
2023-04-18T00:04:18.244Z,9.87
2023-04-18T00:06:47.540Z,11.33
2023-04-18T00:09:14.369Z,11.90
2023-04-18T00:11:41.351Z,12.10
2023-04-18T00:16:36.334Z,13.20
2023-04-18T00:19:05.202Z,12.33
2023-04-18T00:21:32.679Z,11.23
2023-04-18T00:23:59.366Z,11.17
2023-04-18T00:26:27.268Z,11.23
2023-04-18T00:28:54.249Z,10.90
2023-04-18T00:31:21.031Z,13.50
2023-04-18T00:33:48.094Z,11.97
2023-04-18T00:36:15.713Z,11.17
2023-04-18T00:38:42.544Z,12.80
2023-04-18T00:41:09.455Z,11.33
2023-04-18T00:43:37.228Z,13.37
2023-04-18T00:46:04.386Z,14.20
2023-04-18T00:48:31.558Z,14.67
2023-04-18T00:51:00.336Z,10.57
2023-04-18T00:53:28.182Z,12.67
2023-04-18T00:55:55.330Z,12.87
2023-04-18T00:58:22.477Z,13.47
2023-04-18T01:00:49.855Z,12.23
2023-04-18T01:03:18.531Z,10.43
2023-04-18T01:05:46.881Z,13.93
2023-04-18T01:08:14.280Z,10.33
2023-04-18T01:10:41.435Z,10.33
2023-04-18T01:13:16.055Z,10.80
2023-04-18T01:15:44.458Z,11.97
2023-04-18T01:18:13.352Z,13.47
2023-04-18T01:20:45.848Z,12.83
2023-04-18T01:23:13.361Z,11.13
2023-04-18T01:25:40.477Z,13.53
2023-04-18T01:28:07.511Z,12.23
2023-04-18T01:30:35.072Z,12.47
2023-04-18T01:33:03.501Z,15.03
2023-04-18T01:35:31.081Z,13.60
2023-04-18T01:37:58.412Z,13.60
2023-04-18T01:40:27.522Z,13.13
2023-04-18T01:42:54.446Z,14.47
2023-04-18T01:45:22.444Z,15.93
2023-04-18T01:47:50.101Z,17.90
2023-04-18T01:50:16.912Z,22.17
2023-04-18T01:52:43.749Z,28.13
2023-04-18T01:55:10.746Z,24.40
2023-04-18T01:57:38.297Z,27.70
2023-04-18T02:00:06.396Z,26.73
2023-04-18T02:02:41.379Z,27.10
2023-04-18T02:05:09.061Z,25.87
2023-04-18T02:07:38.716Z,26.33
2023-04-18T02:10:06.347Z,24.23
2023-04-18T02:12:34.705Z,24.80
2023-04-18T02:15:01.874Z,22.37
2023-04-18T02:17:28.972Z,22.60
2023-04-18T02:19:55.887Z,26.30
2023-04-18T02:22:22.783Z,25.13
2023-04-18T02:24:50.404Z,23.43
2023-04-18T02:27:18.864Z,23.67
2023-04-18T02:29:45.947Z,23.87
2023-04-18T02:32:12.707Z,22.40
2023-04-18T02:34:39.522Z,20.63
2023-04-18T02:37:06.556Z,21.73
2023-04-18T02:39:33.300Z,21.40
2023-04-18T02:42:01.598Z,20.60
2023-04-18T02:44:28.473Z,22.43
2023-04-18T02:46:55.210Z,22.50
2023-04-18T02:49:22.166Z,23.90
2023-04-18T02:51:49.218Z,21.60
2023-04-18T02:54:16.643Z,22.23
2023-04-18T02:56:54.427Z,20.40
2023-04-18T02:59:44.011Z,22.80
2023-04-18T03:02:24.775Z,24.43
2023-04-18T03:04:56.614Z,24.90
2023-04-18T03:07:23.950Z,24.67
2023-04-18T03:09:52.224Z,25.00
2023-04-18T03:12:24.008Z,25.07
2023-04-18T03:14:51.779Z,24.17
2023-04-18T03:17:20.208Z,27.30
2023-04-18T03:19:49.327Z,25.10
2023-04-18T03:22:19.366Z,23.73
2023-04-18T03:24:53.145Z,24.80
2023-04-18T03:27:21.059Z,27.60
2023-04-18T03:29:48.292Z,26.70
2023-04-18T03:32:15.589Z,23.70
2023-04-18T03:34:42.299Z,26.00
2023-04-18T03:37:09.849Z,28.80
2023-04-18T03:39:42.918Z,27.10
2023-04-18T03:42:09.907Z,26.80
2023-04-18T03:44:37.247Z,26.43
2023-04-18T03:47:04.695Z,26.43
2023-04-18T03:49:33.976Z,27.43
2023-04-18T03:52:03.725Z,27.27
2023-04-18T03:54:37.408Z,24.93
2023-04-18T03:57:04.759Z,27.47
2023-04-18T03:59:32.949Z,30.50
2023-04-18T04:02:00.335Z,29.53
2023-04-18T04:04:27.362Z,29.37
2023-04-18T04:06:54.435Z,27.60
2023-04-18T04:09:21.343Z,35.07
2023-04-18T04:11:50.488Z,28.50
2023-04-18T04:14:17.230Z,27.40
2023-04-18T04:16:46.208Z,26.20
2023-04-18T04:19:16.126Z,29.53
2023-04-18T04:21:54.839Z,30.70
2023-04-18T04:24:22.776Z,29.43
2023-04-18T04:26:51.516Z,29.20
2023-04-18T04:29:23.876Z,28.30
2023-04-18T04:31:51.835Z,26.60
2023-04-18T04:34:29.698Z,30.03
2023-04-18T04:36:57.432Z,26.10
2023-04-18T04:39:26.307Z,28.03
2023-04-18T04:42:12.234Z,28.63
2023-04-18T04:44:49.199Z,28.47
2023-04-18T04:47:16.671Z,28.70
2023-04-18T04:49:44.070Z,29.33
2023-04-18T04:52:10.936Z,28.27
2023-04-18T04:54:38.128Z,26.70
2023-04-18T04:57:07.099Z,30.07
2023-04-18T04:59:33.938Z,28.77
2023-04-18T05:02:00.897Z,27.40
2023-04-18T05:04:27.888Z,29.37
2023-04-18T05:06:54.904Z,27.70
2023-04-18T05:09:22.075Z,31.03
2023-04-18T05:11:49.574Z,30.50
2023-04-18T05:14:17.703Z,27.60
2023-04-18T05:16:44.589Z,29.57
2023-04-18T05:19:11.380Z,30.77
2023-04-18T05:21:38.357Z,33.73
2023-04-18T05:24:05.728Z,28.17
2023-04-18T05:26:32.535Z,30.43
2023-04-18T05:28:59.236Z,28.43
2023-04-18T05:31:26.839Z,31.23
2023-04-18T05:33:53.603Z,32.60
2023-04-18T05:36:20.891Z,30.47
2023-04-18T05:38:47.611Z,33.73
2023-04-18T05:41:14.454Z,30.23
2023-04-18T05:43:42.922Z,32.37
2023-04-18T05:46:09.846Z,30.17
2023-04-18T05:48:37.578Z,32.43
2023-04-18T05:51:06.121Z,30.50
2023-04-18T05:53:32.874Z,29.87
2023-04-18T05:55:59.963Z,32.87
2023-04-18T05:58:28.787Z,30.33
2023-04-18T06:00:56.317Z,30.53
2023-04-18T06:03:23.935Z,30.53
2023-04-18T06:05:51.358Z,35.73
2023-04-18T06:08:18.221Z,30.67
2023-04-18T06:10:44.913Z,29.60
2023-04-18T06:13:11.957Z,27.73
2023-04-18T06:15:39.220Z,32.67
2023-04-18T06:18:06.660Z,29.67
2023-04-18T06:20:33.476Z,30.20
2023-04-18T06:23:00.249Z,28.70
2023-04-18T06:25:27.440Z,27.63
2023-04-18T06:27:54.271Z,30.77
2023-04-18T06:30:22.987Z,28.13
2023-04-18T06:32:49.900Z,28.73
2023-04-18T06:35:16.934Z,29.27
2023-04-18T06:37:44.894Z,30.37
2023-04-18T06:40:12.452Z,30.70
2023-04-18T06:42:39.562Z,30.47
2023-04-18T06:45:08.214Z,28.33
2023-04-18T06:47:35.058Z,31.03
2023-04-18T06:50:02.090Z,29.30
2023-04-18T06:52:28.897Z,27.13
2023-04-18T06:54:55.620Z,33.43
2023-04-18T06:57:23.264Z,27.03
2023-04-18T06:59:49.931Z,27.17
2023-04-18T07:02:17.138Z,30.43
2023-04-18T07:04:44.095Z,25.80
2023-04-18T07:07:10.959Z,23.97
2023-04-18T07:09:38.417Z,26.40
2023-04-18T07:12:05.610Z,25.13
2023-04-18T07:14:34.087Z,24.17
2023-04-18T07:17:01.858Z,22.77
2023-04-18T07:19:28.709Z,24.70
2023-04-18T07:21:56.071Z,23.00
2023-04-18T07:24:23.692Z,27.77
2023-04-18T07:26:55.025Z,26.60
2023-04-18T07:29:22.228Z,33.53
2023-04-18T07:31:49.448Z,27.67
2023-04-18T07:34:16.269Z,30.30
2023-04-18T07:36:43.079Z,25.50
2023-04-18T07:39:10.838Z,26.00
2023-04-18T07:41:38.462Z,23.43
2023-04-18T07:44:05.408Z,24.20
2023-04-18T07:46:33.949Z,21.47
2023-04-18T07:49:02.409Z,22.47
2023-04-18T07:51:31.996Z,21.33
2023-04-18T07:53:59.617Z,22.30
2023-04-18T07:56:28.530Z,19.88
2023-04-18T07:58:55.710Z,20.77
2023-04-18T08:01:24.882Z,19.45
2023-04-18T08:03:53.979Z,22.73
2023-04-18T08:06:21.457Z,18.73
2023-04-18T08:08:48.698Z,21.38
2023-04-18T08:11:15.473Z,21.17
2023-04-18T08:13:42.247Z,21.30
2023-04-18T08:16:09.977Z,21.35
2023-04-18T08:18:37.758Z,24.95
2023-04-18T08:21:04.894Z,21.90
2023-04-18T08:23:31.607Z,20.60
2023-04-18T08:25:58.403Z,20.47
2023-04-18T08:28:25.705Z,21.73
2023-04-18T08:30:55.254Z,18.93
2023-04-18T08:33:24.221Z,20.85
2023-04-18T08:35:51.683Z,19.73
2023-04-18T08:38:19.446Z,19.58
2023-04-18T08:40:47.225Z,19.58
2023-04-18T08:43:15.286Z,19.80
2023-04-18T08:45:43.582Z,19.77
2023-04-18T08:48:17.917Z,19.53
2023-04-18T08:50:45.396Z,19.83
2023-04-18T08:53:12.285Z,20.67
2023-04-18T08:55:40.544Z,16.67
2023-04-18T08:58:08.154Z,22.03
2023-04-18T09:00:35.277Z,19.67
2023-04-18T09:03:03.246Z,17.80
2023-04-18T09:05:30.165Z,18.87
2023-04-18T09:07:56.931Z,16.73
2023-04-18T09:10:29.075Z,17.48
2023-04-18T09:12:57.898Z,17.10
2023-04-18T09:15:29.614Z,20.00
2023-04-18T09:17:58.842Z,15.88
2023-04-18T09:20:35.864Z,18.02
2023-04-18T09:23:11.352Z,17.48
2023-04-18T09:25:48.306Z,20.52
2023-04-18T09:28:29.285Z,17.15
2023-04-18T09:30:58.159Z,15.97
2023-04-18T09:33:32.590Z,19.52
2023-04-18T09:36:21.552Z,15.48
2023-04-18T09:38:50.195Z,16.05
2023-04-18T09:41:20.074Z,19.60
2023-04-18T09:43:48.724Z,14.68
2023-04-18T09:46:17.726Z,15.32
2023-04-18T09:48:44.833Z,16.10
2023-04-18T09:51:15.737Z,16.30
2023-04-18T09:53:45.053Z,15.48
2023-04-18T09:56:26.249Z,16.83
2023-04-18T09:58:57.288Z,33.97
2023-04-18T10:01:28.332Z,32.90
2023-04-18T10:03:57.383Z,64.23
2023-04-18T10:06:27.434Z,19.20
2023-04-18T10:08:55.619Z,51.97
2023-04-18T10:11:24.338Z,18.30
2023-04-18T10:13:55.913Z,16.40
2023-04-18T10:16:23.110Z,15.13
2023-04-18T10:18:51.370Z,16.57
2023-04-18T10:21:18.110Z,14.53
2023-04-18T10:23:49.208Z,16.93
2023-04-18T10:26:16.339Z,18.00
2023-04-18T10:28:55.641Z,14.73
2023-04-18T10:31:27.024Z,17.43
2023-04-18T10:34:04.669Z,15.47
2023-04-18T10:36:33.164Z,13.40
2023-04-18T10:39:21.167Z,14.10
2023-04-18T10:41:51.643Z,13.67
2023-04-18T10:44:25.825Z,11.90
2023-04-18T10:46:52.712Z,12.80
2023-04-18T10:49:35.433Z,13.43
2023-04-18T10:52:06.013Z,12.43
2023-04-18T10:54:47.201Z,13.67
2023-04-18T10:57:15.260Z,11.60
2023-04-18T10:59:44.466Z,10.77
2023-04-18T11:02:24.726Z,12.87
2023-04-18T11:04:57.140Z,12.43
2023-04-18T11:07:48.733Z,10.50
2023-04-18T11:10:23.791Z,9.40
2023-04-18T11:12:52.180Z,11.93
2023-04-18T11:15:22.185Z,12.40
2023-04-18T11:17:57.574Z,10.03
2023-04-18T11:20:25.964Z,9.97
2023-04-18T11:23:00.528Z,10.07
2023-04-18T11:25:32.648Z,17.03
2023-04-18T11:28:00.978Z,12.87
2023-04-18T11:30:31.362Z,11.83
2023-04-18T11:32:58.163Z,11.93
2023-04-18T11:35:25.111Z,10.27
2023-04-18T11:37:52.141Z,10.73
2023-04-18T11:40:18.925Z,11.57
2023-04-18T11:42:45.769Z,12.10
2023-04-18T11:45:14.177Z,10.30
2023-04-18T11:47:43.265Z,10.48
2023-04-18T11:50:13.062Z,9.02
2023-04-18T11:52:42.674Z,10.95
2023-04-18T11:55:17.512Z,14.02
2023-04-18T11:57:55.111Z,11.90
2023-04-18T12:00:40.165Z,11.68
2023-04-18T12:03:15.737Z,11.45
2023-04-18T12:05:43.250Z,11.43
2023-04-18T12:08:13.998Z,11.70
2023-04-18T12:10:52.288Z,8.80
2023-04-18T12:13:25.505Z,14.75
2023-04-18T12:15:52.714Z,10.95
2023-04-18T12:18:20.261Z,10.67
2023-04-18T12:20:58.624Z,11.57
2023-04-18T12:23:40.469Z,10.83
2023-04-18T12:26:22.932Z,11.87
2023-04-18T12:28:51.593Z,11.83
2023-04-18T12:31:18.361Z,11.80
2023-04-18T12:33:45.203Z,10.70
2023-04-18T12:36:12.959Z,10.87
2023-04-18T12:38:39.708Z,12.13
2023-04-18T12:41:06.922Z,15.23
2023-04-18T12:43:33.629Z,9.47
2023-04-18T12:46:00.623Z,9.40
2023-04-18T12:48:28.249Z,11.27
2023-04-18T12:50:55.648Z,9.80
2023-04-18T12:53:22.401Z,9.73
2023-04-18T12:55:49.298Z,11.27
2023-04-18T12:58:18.695Z,11.67
2023-04-18T13:00:46.251Z,11.00
2023-04-18T13:03:13.749Z,8.60
2023-04-18T13:05:42.213Z,9.50
2023-04-18T13:08:16.820Z,9.47
2023-04-18T13:10:46.217Z,10.27
2023-04-18T13:13:13.554Z,12.20
2023-04-18T13:15:40.924Z,10.93
2023-04-18T13:18:08.013Z,11.87
2023-04-18T13:20:35.511Z,10.43
2023-04-18T13:23:02.999Z,11.77
2023-04-18T13:25:29.829Z,11.23
2023-04-18T13:27:58.661Z,11.67
2023-04-18T13:30:26.756Z,11.67
2023-04-18T13:32:55.053Z,10.47
2023-04-18T13:35:22.866Z,11.63
2023-04-18T13:37:49.651Z,11.95
2023-04-18T13:40:16.429Z,9.53
2023-04-18T13:42:43.496Z,12.30
2023-04-18T13:45:11.476Z,10.20
2023-04-18T13:47:38.385Z,12.30
2023-04-18T13:50:06.181Z,10.40
2023-04-18T13:52:33.343Z,9.03
2023-04-18T13:55:00.080Z,10.50
2023-04-18T13:57:28.819Z,8.70
2023-04-18T13:59:56.404Z,9.83
2023-04-18T14:02:23.340Z,11.30
2023-04-18T14:04:52.189Z,11.67
2023-04-18T14:07:19.037Z,10.90
2023-04-18T14:09:48.199Z,9.97
2023-04-18T14:12:15.039Z,9.13
2023-04-18T14:14:43.107Z,13.73
2023-04-18T14:17:09.859Z,10.90
2023-04-18T14:19:36.724Z,8.57
2023-04-18T14:22:03.544Z,8.70
2023-04-18T14:24:30.259Z,10.75
2023-04-18T14:26:57.178Z,9.40
2023-04-18T14:29:23.920Z,9.10
2023-04-18T14:31:50.733Z,11.43
2023-04-18T14:34:17.485Z,9.23
2023-04-18T14:36:44.771Z,10.10
2023-04-18T14:39:12.135Z,11.60
2023-04-18T14:41:39.005Z,12.07
2023-04-18T14:44:05.864Z,12.00
2023-04-18T14:46:32.660Z,12.60
2023-04-18T14:49:00.033Z,12.00
2023-04-18T14:51:28.732Z,11.80
2023-04-18T14:53:55.830Z,8.30
2023-04-18T14:56:24.311Z,10.40
2023-04-18T14:58:51.110Z,9.80
2023-04-18T15:01:17.852Z,10.73
2023-04-18T15:03:45.516Z,11.63
2023-04-18T15:06:13.758Z,10.33
2023-04-18T15:08:40.867Z,10.63
2023-04-18T15:11:08.348Z,11.83
2023-04-18T15:13:35.386Z,10.80
2023-04-18T15:16:02.929Z,13.23
2023-04-18T15:18:30.044Z,11.20
2023-04-18T15:20:59.813Z,12.17
2023-04-18T15:23:27.826Z,10.53
2023-04-18T15:25:54.698Z,9.83
2023-04-18T15:28:21.527Z,9.13
2023-04-18T15:30:48.308Z,9.37
2023-04-18T15:33:15.942Z,9.47
2023-04-18T15:35:42.880Z,10.93
2023-04-18T15:38:09.644Z,8.57
2023-04-18T15:40:36.635Z,10.43
2023-04-18T15:43:04.156Z,9.63
2023-04-18T15:45:31.316Z,9.20
2023-04-18T15:47:59.236Z,9.30
2023-04-18T15:50:26.344Z,14.23
2023-04-18T15:52:53.266Z,10.13
2023-04-18T15:55:20.040Z,10.43
2023-04-18T15:57:47.048Z,10.50
2023-04-18T16:00:20.904Z,10.33
2023-04-18T16:02:47.797Z,11.33
2023-04-18T16:05:15.577Z,10.13
2023-04-18T16:07:43.040Z,11.37
2023-04-18T16:10:11.248Z,12.10
2023-04-18T16:12:39.558Z,10.33
2023-04-18T16:15:08.709Z,10.83
2023-04-18T16:17:39.019Z,11.37
2023-04-18T16:20:08.520Z,10.40
2023-04-18T16:22:35.467Z,10.43
2023-04-18T16:25:02.339Z,14.87
2023-04-18T16:27:30.636Z,10.83
2023-04-18T16:29:58.284Z,10.67
2023-04-18T16:32:25.326Z,12.83
2023-04-18T16:34:52.248Z,10.67
2023-04-18T16:37:19.064Z,11.93
2023-04-18T16:39:47.289Z,11.60
2023-04-18T16:42:15.856Z,15.10
2023-04-18T16:44:44.831Z,12.43
2023-04-18T16:47:11.684Z,10.27
2023-04-18T16:49:39.203Z,9.77
2023-04-18T16:52:06.021Z,10.53
2023-04-18T16:54:32.802Z,9.90
2023-04-18T16:57:00.000Z,10.37
2023-04-18T16:59:26.889Z,11.73
2023-04-18T17:01:53.782Z,12.27
2023-04-18T17:04:21.404Z,9.43
2023-04-18T17:06:48.600Z,12.00
2023-04-18T17:09:16.731Z,11.93
2023-04-18T17:11:43.927Z,10.00
2023-04-18T17:14:11.561Z,12.13
2023-04-18T17:16:40.609Z,9.33
2023-04-18T17:19:08.385Z,12.07
2023-04-18T17:21:35.977Z,13.00
2023-04-18T17:24:03.980Z,14.87
2023-04-18T17:26:31.595Z,16.03
2023-04-18T17:29:00.130Z,14.70
2023-04-18T17:31:27.404Z,16.40
2023-04-18T17:33:54.797Z,13.80
2023-04-18T17:36:21.629Z,13.20
2023-04-18T17:38:51.066Z,14.13
2023-04-18T17:41:20.097Z,15.43
2023-04-18T17:43:48.129Z,16.73
2023-04-18T17:46:15.643Z,9.83
2023-04-18T17:48:42.716Z,10.13
2023-04-18T17:51:10.053Z,11.73
2023-04-18T17:53:36.777Z,9.47
2023-04-18T17:56:03.852Z,13.30
2023-04-18T17:58:31.523Z,13.57
2023-04-18T18:00:58.387Z,11.47
2023-04-18T18:03:25.947Z,12.60
2023-04-18T18:05:55.212Z,13.83
2023-04-18T18:08:22.710Z,10.40
2023-04-18T18:10:49.927Z,15.60
2023-04-18T18:13:17.146Z,12.20
2023-04-18T18:15:44.404Z,11.87
2023-04-18T18:18:11.479Z,10.30
2023-04-18T18:20:41.001Z,11.33
2023-04-18T18:23:07.735Z,11.97
2023-04-18T18:25:37.074Z,10.20
2023-04-18T18:28:04.136Z,10.97
2023-04-18T18:30:30.986Z,11.47
2023-04-18T18:32:58.028Z,10.17
2023-04-18T18:35:24.901Z,8.80
2023-04-18T18:37:51.771Z,10.80
2023-04-18T18:40:18.623Z,10.77
2023-04-18T18:42:46.204Z,12.33
2023-04-18T18:45:12.975Z,10.20
2023-04-18T18:47:40.389Z,9.60
2023-04-18T18:50:07.760Z,10.90
2023-04-18T18:52:34.602Z,8.73
2023-04-18T18:55:01.648Z,10.23
2023-04-18T18:57:28.519Z,9.57
2023-04-18T18:59:56.091Z,8.83
2023-04-18T19:02:23.171Z,10.60
2023-04-18T19:04:50.276Z,11.03
2023-04-18T19:07:17.536Z,10.63
2023-04-18T19:09:46.012Z,11.83
2023-04-18T19:12:13.016Z,11.20
2023-04-18T19:14:41.884Z,10.07
2023-04-18T19:17:09.234Z,9.13
2023-04-18T19:19:36.319Z,13.23
2023-04-18T19:22:03.060Z,11.20
2023-04-18T19:24:31.981Z,11.10
2023-04-18T19:27:00.425Z,10.73
2023-04-18T19:29:27.071Z,11.00
2023-04-18T19:31:54.371Z,8.53
2023-04-18T19:34:22.291Z,10.30
2023-04-18T19:36:49.241Z,8.60
2023-04-18T19:39:18.215Z,8.60
2023-04-18T19:41:46.644Z,10.63
2023-04-18T19:44:13.359Z,10.33
2023-04-18T19:46:40.585Z,11.37
2023-04-18T19:49:07.477Z,11.13
2023-04-18T19:51:34.275Z,9.30
2023-04-18T19:54:02.631Z,11.90
2023-04-18T19:56:29.364Z,11.87
2023-04-18T19:58:57.889Z,8.83
2023-04-18T20:01:27.695Z,12.20
2023-04-18T20:03:57.538Z,12.03
2023-04-18T20:06:26.631Z,10.27
2023-04-18T20:08:56.316Z,11.67
2023-04-18T20:11:23.079Z,10.80
2023-04-18T20:13:52.178Z,20.30
2023-04-18T20:16:18.947Z,12.97
2023-04-18T20:18:47.536Z,11.83
2023-04-18T20:21:14.365Z,11.60
2023-04-18T20:23:42.596Z,11.33
2023-04-18T20:26:09.451Z,11.80
2023-04-18T20:28:37.875Z,12.10
2023-04-18T20:31:04.898Z,14.07
2023-04-18T20:33:33.129Z,10.83
2023-04-18T20:36:00.569Z,9.63
2023-04-18T20:38:29.854Z,10.90
2023-04-18T20:40:58.812Z,9.73
2023-04-18T20:43:26.822Z,11.30
2023-04-18T20:45:57.772Z,15.63
2023-04-18T20:48:24.757Z,11.07
2023-04-18T20:50:51.655Z,11.30
2023-04-18T20:53:22.526Z,12.47
2023-04-18T20:55:49.372Z,11.13
2023-04-18T20:58:16.172Z,11.73
2023-04-18T21:00:44.651Z,11.47
2023-04-18T21:03:16.217Z,11.60
2023-04-18T21:05:44.422Z,12.10
2023-04-18T21:08:11.431Z,10.17
2023-04-18T21:10:38.267Z,12.00
2023-04-18T21:13:05.272Z,9.40
2023-04-18T21:15:32.651Z,9.23
2023-04-18T21:17:59.655Z,10.03
2023-04-18T21:20:26.890Z,10.90
2023-04-18T21:22:53.590Z,12.13
2023-04-18T21:25:21.391Z,11.00
2023-04-18T21:27:50.457Z,9.60
2023-04-18T21:30:18.246Z,10.90
2023-04-18T21:32:46.598Z,11.30
2023-04-18T21:35:13.431Z,10.90
2023-04-18T21:37:40.253Z,10.40
2023-04-18T21:40:07.764Z,10.57
2023-04-18T21:42:35.520Z,11.97
2023-04-18T21:45:03.212Z,11.43
2023-04-18T21:47:30.134Z,12.73
2023-04-18T21:49:56.872Z,10.33
2023-04-18T21:52:23.597Z,11.90
2023-04-18T21:54:50.375Z,9.00
2023-04-18T21:57:17.570Z,11.03
2023-04-18T21:59:44.508Z,11.63
2023-04-18T22:02:11.549Z,10.93
2023-04-18T22:04:42.541Z,8.17
2023-04-18T22:07:09.916Z,11.47
2023-04-18T22:09:37.126Z,10.53
2023-04-18T22:12:04.726Z,10.63
2023-04-18T22:14:32.470Z,15.77
2023-04-18T22:17:01.932Z,15.20
2023-04-18T22:19:29.545Z,12.97
2023-04-18T22:21:56.865Z,11.60
2023-04-18T22:24:24.628Z,10.97
2023-04-18T22:26:51.745Z,11.70
2023-04-18T22:29:18.527Z,10.63
2023-04-18T22:31:45.511Z,10.37
2023-04-18T22:34:12.344Z,11.07
2023-04-18T22:36:39.139Z,10.17
2023-04-18T22:39:06.381Z,9.70
2023-04-18T22:41:33.455Z,11.13
2023-04-18T22:44:00.417Z,11.43
2023-04-18T22:46:27.265Z,11.77
2023-04-18T22:48:54.400Z,12.33
2023-04-18T22:51:21.189Z,11.00
2023-04-18T22:53:48.594Z,12.73
2023-04-18T22:56:16.236Z,12.77
2023-04-18T22:58:43.280Z,11.00
2023-04-18T23:01:10.137Z,12.03
2023-04-18T23:03:36.984Z,11.73
2023-04-18T23:06:03.920Z,10.37
2023-04-18T23:08:31.003Z,10.27
2023-04-18T23:10:57.930Z,11.23
2023-04-18T23:13:24.684Z,11.53
2023-04-18T23:15:51.431Z,10.20
2023-04-18T23:18:18.705Z,10.50
2023-04-18T23:20:45.967Z,10.27
2023-04-18T23:23:13.174Z,10.30
2023-04-18T23:25:39.973Z,11.40
2023-04-18T23:28:06.971Z,9.53
2023-04-18T23:30:36.876Z,9.37
2023-04-18T23:33:03.973Z,12.10
2023-04-18T23:35:31.075Z,9.73
2023-04-18T23:37:57.899Z,11.07
2023-04-18T23:40:24.815Z,10.87
2023-04-18T23:42:51.585Z,10.77
2023-04-18T23:45:18.987Z,11.37
2023-04-18T23:47:45.746Z,11.67
2023-04-18T23:50:13.254Z,10.50
2023-04-18T23:52:40.568Z,11.60
2023-04-18T23:55:07.953Z,10.57
2023-04-18T23:57:35.053Z,11.10
